Flight Track Log - Related Links

Times and Time Zones

All times are in EDT time to prevent confusion due to time zone crossing. See the N656BB flight status page for this flight to view local times or setup timezone preferences in your user account.

Time Position Orientation Groundspeed Altitude Reporting Facility
EDT Latitude Longitude Course Direction KTS MPH feet Rate Location/Type
Sat 12:10:26 PM 32.9667 -96.8333 140° Southeast 89 102 900  Level Dallas / Fort Worth TRACON
Sat 12:11:27 PM 32.9500 -96.8167 140° Southeast 84 97 1,600 551 Climbing Dallas / Fort Worth TRACON
Sat 12:12:04 PM 32.9653 -96.8036 36° Northeast 87 100 1,800 606 Climbing Fort Worth Center
Sat 12:13:06 PM 32.9903 -96.7850 32° Northeast 105 121 2,600 774 Climbing Fort Worth Center
Sat 12:14:08 PM 33.0097 -96.7642 42° Northeast 91 105 3,400 435 Climbing Fort Worth Center
Sat 12:15:10 PM 33.0347 -96.7414 37° Northeast 116 133 3,500 435 Climbing Fort Worth Center
Sat 12:16:12 PM 33.0608 -96.7225 31° Northeast 106 122 4,300 532 Climbing Fort Worth Center
Sat 12:17:14 PM 33.0828 -96.6983 43° Northeast 106 122 4,600 145 Climbing Fort Worth Center
Sat 12:18:16 PM 33.1122 -96.6711 38° Northeast 130 150 4,600 -48 Level Fort Worth Center
Sat 12:19:18 PM 33.1442 -96.6389 40° Northeast 137 158 4,500  Descending Fort Worth Center
Sat 12:20:20 PM 33.1650 -96.6069 52° Northeast 134 154 4,600 48 Climbing Fort Worth Center
Sat 12:21:22 PM 33.1889 -96.5625 57° Northeast 135 155 4,600 384 Level Fort Worth Center
Sat 12:22:25 PM 33.2056 -96.5322 57° Northeast 111 128 5,400 432 Climbing Fort Worth Center
Sat 12:23:27 PM 33.2200 -96.5022 60° Northeast 106 122 5,500 48 Climbing Fort Worth Center
Sat 12:24:29 PM 33.2408 -96.4606 59° Northeast 130 150 5,500 48 Level Fort Worth Center
Sat 12:25:31 PM 33.2678 -96.4294 44° Northeast 134 154 5,600  Climbing Fort Worth Center
Sat 12:26:33 PM 33.3069 -96.4203 11° North 133 153 5,500 -48 Descending Fort Worth Center
Sat 12:27:35 PM 33.3436 -96.4156 North 134 154 5,500 -97 Level Fort Worth Center
Sat 12:28:37 PM 33.3806 -96.4233 350° North 133 153 5,300 97 Descending Fort Worth Center
Sat 12:29:39 PM 33.3542 -96.4275 188° South 122 140 5,700 242 Climbing Fort Worth Center
Sat 12:30:41 PM 33.3450 -96.3831 104° East 126 145 5,800 -97 Climbing Fort Worth Center
Sat 12:31:43 PM 33.3583 -96.3372 71° East 146 168 5,500 -145 Descending Fort Worth Center
Sat 12:32:45 PM 33.3764 -96.2961 62° Northeast 143 165 5,500  Level Fort Worth Center
Sat 12:33:47 PM 33.3950 -96.2511 64° Northeast 142 163 5,500  Level Fort Worth Center
Sat 12:34:49 PM 33.4128 -96.2100 63° Northeast 141 162 5,500  Level Fort Worth Center
Sat 12:35:52 PM 33.4314 -96.1653 63° Northeast 141 162 5,500  Level Fort Worth Center
Sat 12:36:54 PM 33.4458 -96.1228 68° East 140 161 5,500  Level Fort Worth Center
Sat 12:37:56 PM 33.4536 -96.0733 79° East 140 161 5,500  Level Fort Worth Center
Sat 12:38:58 PM 33.4608 -96.0278 79° East 140 161 5,500  Level Fort Worth Center
Sat 12:40:00 PM 33.4661 -95.9789 83° East 140 161 5,500  Level Fort Worth Center
Sat 12:41:02 PM 33.4733 -95.9322 79° East 140 161 5,500  Level Fort Worth Center
Sat 12:42:04 PM 33.4811 -95.8825 79° East 140 161 5,500  Level Fort Worth Center
Sat 12:43:06 PM 33.4886 -95.8358 79° East 140 161 5,500  Level Fort Worth Center
Sat 12:44:08 PM 33.4961 -95.7903 79° East 140 161 5,500  Level Fort Worth Center
Sat 12:45:10 PM 33.5031 -95.7411 80° East 140 161 5,500  Level Fort Worth Center
Sat 12:46:12 PM 33.5092 -95.6953 81° East 140 161 5,500  Level Fort Worth Center
Sat 12:47:13 PM 33.5169 -95.6464 79° East 140 161 5,500  Level Fort Worth Center
Sat 12:48:15 PM 33.5206 -95.6006 85° East 140 161 5,500  Level Fort Worth Center
Sat 12:49:17 PM 33.5233 -95.5611 85° East 140 161 5,500  Level Fort Worth Center
Sat 12:50:19 PM 33.5325 -95.5083 78° East 138 159 5,500  Level Fort Worth Center
Sat 12:51:21 PM 33.5208 -95.4742 112° Southeast 147 169 5,500  Level Fort Worth Center
Sat 12:52:23 PM 33.4794 -95.4700 175° South 155 178 5,500  Level Fort Worth Center
Sat 12:53:25 PM 33.4419 -95.4592 166° South 148 170 5,500  Level Fort Worth Center
Sat 12:54:26 PM 33.4017 -95.4442 163° South 147 169 5,500  Level Fort Worth Center
Sat 12:55:28 PM 33.3647 -95.4319 165° South 146 168 5,500  Level Fort Worth Center
Sat 12:56:30 PM 33.3258 -95.4242 171° South 145 167 5,500  Level Fort Worth Center
Sat 12:57:32 PM 33.2786 -95.4219 178° South 145 167 5,500  Level Fort Worth Center
Sat 12:58:34 PM 33.2383 -95.4214 179° South 144 166 5,500  Level Fort Worth Center
Sat 12:59:36 PM 33.1986 -95.4139 171° South 145 167 5,500  Level Fort Worth Center
Sat 01:00:38 PM 33.1578 -95.4078 173° South 145 167 5,500  Level Fort Worth Center
Sat 01:01:39 PM 33.1169 -95.4008 172° South 147 169 5,500  Level Fort Worth Center
Sat 01:02:41 PM 33.0767 -95.3967 175° South 147 169 5,500  Level Fort Worth Center
Sat 01:03:43 PM 33.0311 -95.3875 170° South 145 167 5,500  Level Fort Worth Center
Sat 01:04:45 PM 32.9908 -95.3842 176° South 144 166 5,500  Level Fort Worth Center
Sat 01:05:47 PM 32.9519 -95.3803 175° South 144 166 5,500  Level Fort Worth Center
Sat 01:06:48 PM 32.9103 -95.3725 171° South 144 166 5,500  Level Fort Worth Center
Sat 01:07:50 PM 32.8706 -95.3650 171° South 144 166 5,500  Level Fort Worth Center
Sat 01:08:52 PM 32.8325 -95.3594 173° South 144 166 5,500  Level Fort Worth Center
Sat 01:09:54 PM 32.7842 -95.3528 173° South 144 166 5,500  Level Fort Worth Center
Sat 01:10:56 PM 32.7472 -95.3606 190° South 144 166 5,500  Level Fort Worth Center
Sat 01:11:57 PM 32.7067 -95.3578 177° South 142 163 5,500  Level Fort Worth Center
Sat 01:12:59 PM 32.6675 -95.3564 178° South 143 165 5,500  Level Fort Worth Center
Sat 01:14:01 PM 32.6272 -95.3536 177° South 143 165 5,500  Level Fort Worth Center
Sat 01:15:03 PM 32.5894 -95.3561 183° South 142 163 5,500 -48 Level Fort Worth Center
Sat 01:16:05 PM 32.5500 -95.3569 181° South 142 163 5,400 -339 Descending Fort Worth Center
Sat 01:17:07 PM 32.4994 -95.3544 178° South 150 173 4,800 -339 Descending Fort Worth Center
Sat 01:18:09 PM 32.4583 -95.3497 174° South 150 173 4,700 -12 Descending Fort Worth Center
Sat 01:34:14 PM 32.4478 -95.6878 297° West 131 151 4,600 -6 Descending Fort Worth Center
Sat 01:35:00 PM 32.5421 -95.8475 296° West  Level FlightAware Approximate
Sat 01:35:16 PM 32.4650 -95.7275 297° West 132 152 4,600  Level Fort Worth Center
Sat 01:36:00 PM 32.5562 -95.8729 320° Northwest  Level FlightAware Approximate
Sat 01:36:18 PM 32.4819 -95.7689 296° West 133 153 4,600  Level Fort Worth Center
Sat 01:37:00 PM 32.5723 -95.8966 297° West  Level FlightAware Approximate
Sat 01:37:20 PM 32.5008 -95.8089 299° West 135 155 4,500  Level Fort Worth Center
Sat 01:38:00 PM 32.5841 -95.9243 297° West  Level FlightAware Approximate
Sat 01:38:22 PM 32.5197 -95.8500 299° West 139 160 4,500  Level Fort Worth Center
Sat 01:39:00 PM 32.5959 -95.9520 297° West  Level FlightAware Approximate
Sat 01:39:24 PM 32.5381 -95.8900 299° West 139 160 4,500  Level Fort Worth Center
Sat 01:40:26 PM 32.5600 -95.9383 298° West 139 160 4,500  Level Fort Worth Center
Sat 01:41:28 PM 32.5794 -95.9783 300° West 139 160 4,500  Level Fort Worth Center
Sat 01:42:30 PM 32.5978 -96.0192 298° West 139 160 4,500  Level Fort Worth Center
Sat 01:43:32 PM 32.6169 -96.0586 300° West 139 160 4,500  Level Fort Worth Center
Sat 01:44:34 PM 32.6342 -96.0986 297° West 139 160 4,500  Level Fort Worth Center
Sat 01:45:36 PM 32.6553 -96.1458 298° West 139 160 4,500  Level Fort Worth Center
Sat 01:46:38 PM 32.6733 -96.1847 299° West 138 159 4,500  Level Fort Worth Center
Sat 01:47:40 PM 32.6928 -96.2264 299° West 136 157 4,500  Level Fort Worth Center
Sat 01:48:42 PM 32.7111 -96.2650 299° West 136 157 4,500  Level Fort Worth Center
Sat 01:49:44 PM 32.7283 -96.3050 297° West 136 157 4,500  Level Fort Worth Center
Sat 01:50:46 PM 32.7481 -96.3469 299° West 136 157 4,500 -194 Level Fort Worth Center
Sat 01:51:48 PM 32.7678 -96.3908 298° West 150 173 4,100 -677 Descending Fort Worth Center
Sat 01:52:50 PM 32.7814 -96.4386 289° West 147 169 3,100 -774 Descending Fort Worth Center
Sat 01:53:52 PM 32.7969 -96.4781 295° West 131 151 2,500 -290 Descending Fort Worth Center
Sat 01:54:54 PM 32.8089 -96.5181 290° West 120 138 2,500 48 Level Fort Worth Center
Sat 01:55:57 PM 32.8094 -96.5619 271° West 128 147 2,600 96 Climbing Fort Worth Center
Sat 01:56:59 PM 32.8278 -96.5989 301° West 138 159 2,700 -97 Climbing Fort Worth Center
Sat 01:58:01 PM 32.8503 -96.6386 304° West 136 157 2,400 -97 Descending Fort Worth Center
Sat 01:59:03 PM 32.8728 -96.6747 307° West 136 157 2,500 48 Climbing Fort Worth Center
Sat 02:00:05 PM 32.8972 -96.7089 310° West 136 157 2,500  Level Fort Worth Center
Sat 02:01:07 PM 32.9236 -96.7431 313° West 135 155 2,500  Level Fort Worth Center
Sat 02:02:09 PM 32.9536 -96.7764 317° Northwest 135 155 2,500 -97 Level Fort Worth Center
Sat 02:03:11 PM 32.9811 -96.8069 317° Northwest 135 155 2,300 -532 Descending Fort Worth Center
Sat 02:04:13 PM 33.0111 -96.8294 328° Northwest 132 152 1,400 -629 Descending Fort Worth Center
Sat 02:05:15 PM 32.9947 -96.8464 221° Southwest 96 110 1,000 -290 Descending Fort Worth Center
Sat 02:06:17 PM 32.9742 -96.8392 164° South 91 105 800 -194 Descending Fort Worth Center

Login

Don't have an account? Register now (free) for customized features, flight alerts, and more!